Time;durP1;ratioP1;P1;durP2;ratioP2;P2;SDS_P1;SDS_P2;PMS_P1;PMS_P2;Temp;Humidity;BMP_temperature;BMP_pressure;BME280_temperature;BME280_humidity;BME280_pressure;Samples;Min_cycle;Max_cycle;Signal;HPM_P1;HPM_P2
2024/02/25 00:01:36;;;;;;;1.00;0.52;;;;;;;11.80;59.49;99481.25;4478030;31;33685;-83
2024/02/25 00:04:04;;;;;;;0.73;0.73;;;;;;;11.96;58.74;99486.62;4490996;31;34382;-83
2024/02/25 00:06:32;;;;;;;2.65;1.27;;;;;;;11.83;59.33;99480.28;4477630;31;33352;-83
2024/02/25 00:09:01;;;;;;;0.20;0.20;;;;;;;11.86;59.07;99474.81;4489583;31;34728;-83
2024/02/25 00:11:30;;;;;;;1.10;0.73;;;;;;;11.75;59.30;99474.50;4463429;31;32857;-82
2024/02/25 00:13:58;;;;;;;0.88;0.85;;;;;;;11.82;59.62;99477.66;4475759;31;33631;-83
2024/02/25 00:16:25;;;;;;;0.20;0.20;;;;;;;11.68;nan;99475.75;4465365;31;33712;-83
2024/02/25 00:18:53;;;;;;;4.28;1.27;;;;;;;11.75;59.86;99471.84;4490168;31;34000;-83
2024/02/25 00:21:21;;;;;;;0.75;0.75;;;;;;;11.81;59.32;99474.16;4478271;31;33192;-82
2024/02/25 00:23:48;;;;;;;1.37;0.85;;;;;;;11.64;59.71;99474.25;4486901;31;34623;-83
2024/02/25 00:26:16;;;;;;;2.28;1.08;;;;;;;11.68;59.85;99481.03;4476059;31;34036;-83
2024/02/25 00:28:44;;;;;;;1.02;0.98;;;;;;;11.62;59.86;99476.94;4465789;31;32835;-83
2024/02/25 00:31:11;;;;;;;1.62;0.98;;;;;;;11.68;59.60;99497.78;4488219;31;33367;-83
2024/02/25 00:33:39;;;;;;;0.55;0.55;;;;;;;11.64;59.72;99482.16;4475410;31;33623;-82
2024/02/25 00:36:07;;;;;;;0.47;0.43;;;;;;;11.79;58.78;99479.56;4475121;31;34708;-82
2024/02/25 00:38:35;;;;;;;1.23;1.05;;;;;;;11.58;59.61;99480.69;4476227;31;31648;-82
2024/02/25 00:41:03;;;;;;;0.68;0.52;;;;;;;11.52;59.55;99481.88;4490371;31;33987;-82
2024/02/25 00:43:31;;;;;;;0.13;0.13;;;;;;;11.53;59.47;99483.56;4489448;31;34500;-81
2024/02/25 00:45:59;;;;;;;0.00;0.00;;;;;;;11.60;59.81;99477.97;4464814;31;33854;-82
2024/02/25 00:48:26;;;;;;;1.25;0.30;;;;;;;11.56;59.81;99479.06;4475614;31;32441;-82
2024/02/25 00:50:54;;;;;;;0.17;0.17;;;;;;;11.40;60.58;99474.59;4466204;31;32680;-82
2024/02/25 00:53:22;;;;;;;0.30;0.30;;;;;;;11.23;60.52;99488.66;4478158;31;32424;-82
2024/02/25 00:55:50;;;;;;;1.08;0.82;;;;;;;11.31;60.21;99493.56;4479032;31;32732;-83
2024/02/25 00:58:17;;;;;;;0.47;0.47;;;;;;;11.14;60.71;99486.50;4478149;31;33904;-82
2024/02/25 01:00:46;;;;;;;1.40;1.00;;;;;;;11.18;60.66;99490.69;4493681;31;35441;-83
2024/02/25 01:03:14;;;;;;;0.30;0.30;;;;;;;11.33;59.97;99491.69;4475957;31;34606;-83
2024/02/25 01:05:42;;;;;;;0.17;0.17;;;;;;;11.56;59.17;99485.22;4488728;31;33880;-82
2024/02/25 01:08:09;;;;;;;2.55;0.30;;;;;;;11.43;59.65;99497.34;4475412;31;34008;-82
2024/02/25 01:10:39;;;;;;;0.30;0.30;;;;;;;11.49;59.54;99486.47;4476759;31;31959;-82
2024/02/25 01:13:07;;;;;;;0.30;0.30;;;;;;;11.35;60.02;99499.56;4490181;31;33892;-82
2024/02/25 01:15:34;;;;;;;0.20;0.20;;;;;;;11.20;60.35;99501.19;4463181;31;32465;-82
2024/02/25 01:18:02;;;;;;;0.10;0.10;;;;;;;11.30;60.44;99510.38;4491603;31;34808;-83
2024/02/25 01:20:33;;;;;;;0.20;0.20;;;;;;;11.28;60.50;99499.84;4480267;31;32339;-82
2024/02/25 01:23:01;;;;;;;0.40;0.40;;;;;;;11.80;59.24;99496.28;4476155;31;33120;-82
2024/02/25 01:25:29;;;;;;;0.10;0.10;;;;;;;11.63;59.75;99509.53;4487984;31;32561;-81
2024/02/25 01:27:57;;;;;;;0.32;0.32;;;;;;;11.71;59.86;99513.47;4489059;31;33057;-81
2024/02/25 01:30:24;;;;;;;0.30;0.20;;;;;;;11.41;60.60;99515.94;4463635;31;32090;-81
2024/02/25 01:32:53;;;;;;;3.35;1.55;;;;;;;11.68;60.29;99512.78;4479372;31;32757;-82
2024/02/25 01:35:20;;;;;;;1.60;0.45;;;;;;;11.20;61.53;99512.63;4489288;31;34015;-81
2024/02/25 01:37:48;;;;;;;0.20;0.20;;;;;;;10.99;62.35;99517.19;4462091;31;33113;-81
2024/02/25 01:40:16;;;;;;;1.10;0.22;;;;;;;11.10;62.38;99521.06;4461151;31;32339;-82
2024/02/25 01:42:44;;;;;;;0.17;0.17;;;;;;;11.19;62.14;99520.63;4464652;31;32451;-82
2024/02/25 01:45:12;;;;;;;0.10;0.10;;;;;;;11.43;61.26;99523.78;4485232;31;34072;-81
2024/02/25 01:47:40;;;;;;;0.20;0.20;;;;;;;11.39;60.74;99515.16;4491478;31;33559;-81
2024/02/25 01:50:08;;;;;;;1.10;0.85;;;;;;;11.43;61.27;99513.22;4487725;31;34574;-81
2024/02/25 01:52:36;;;;;;;3.62;0.60;;;;;;;11.73;60.03;99511.63;4477750;31;32627;-81
2024/02/25 01:55:04;;;;;;;1.75;0.62;;;;;;;11.60;59.87;99525.56;4465160;31;35818;-81
2024/02/25 01:57:32;;;;;;;0.45;0.45;;;;;;;11.37;60.97;99517.03;4491340;31;33861;-81
2024/02/25 02:00:00;;;;;;;0.15;0.15;;;;;;;11.82;59.64;99507.69;4477625;31;34043;-81
2024/02/25 02:02:27;;;;;;;0.10;0.10;;;;;;;11.56;60.14;99500.22;4480841;31;33191;-81
2024/02/25 02:04:55;;;;;;;0.30;0.30;;;;;;;11.30;61.11;99507.72;4490456;31;34768;-81
2024/02/25 02:07:23;;;;;;;0.40;0.40;;;;;;;11.03;61.53;99505.53;4477547;31;32388;-81
2024/02/25 02:09:50;;;;;;;0.30;0.30;;;;;;;10.93;62.13;99506.94;4492567;31;33460;-81
2024/02/25 02:12:18;;;;;;;0.55;0.55;;;;;;;11.10;61.59;99515.78;4490513;31;33133;-80
2024/02/25 02:14:46;;;;;;;1.65;0.82;;;;;;;11.01;61.85;99510.06;4478414;31;34791;-81
2024/02/25 02:17:14;;;;;;;0.00;0.00;;;;;;;11.11;61.58;99510.44;4491519;31;34157;-81
2024/02/25 02:19:46;;;;;;;1.02;1.02;;;;;;;11.15;61.40;99511.13;4479937;31;33754;-81
2024/02/25 02:22:14;;;;;;;0.20;0.20;;;;;;;11.13;61.47;99518.28;4464920;31;33571;-81
2024/02/25 02:24:42;;;;;;;0.43;0.32;;;;;;;11.15;61.30;99513.78;4477895;31;34836;-82
2024/02/25 02:27:10;;;;;;;0.17;0.17;;;;;;;11.27;60.55;99507.88;4488807;31;34366;-82
2024/02/25 02:29:37;;;;;;;0.20;0.20;;;;;;;11.17;60.75;99502.19;4491806;31;32200;-82
2024/02/25 02:32:05;;;;;;;0.40;0.40;;;;;;;11.11;60.65;99491.06;4467729;31;33186;-82
2024/02/25 02:34:33;;;;;;;0.00;0.00;;;;;;;11.34;59.81;99492.53;4465788;31;33850;-83
2024/02/25 02:37:01;;;;;;;0.28;0.25;;;;;;;11.13;60.16;99490.06;4487387;31;33230;-81
2024/02/25 02:39:29;;;;;;;0.85;0.52;;;;;;;10.98;60.60;99491.72;4463461;31;33646;-82
2024/02/25 02:41:57;;;;;;;0.05;0.05;;;;;;;10.96;60.40;99504.13;4478302;31;32845;-82
2024/02/25 02:44:24;;;;;;;0.10;0.00;;;;;;;10.93;60.74;99498.16;4464765;31;34155;-82
2024/02/25 02:46:53;;;;;;;0.10;0.10;;;;;;;10.92;60.84;99491.13;4474084;31;33296;-82
2024/02/25 02:49:20;;;;;;;1.12;0.57;;;;;;;10.89;61.09;99491.31;4491038;31;33473;-82
2024/02/25 02:51:48;;;;;;;0.20;0.20;;;;;;;10.91;60.99;99486.78;4477088;31;33671;-82
2024/02/25 02:54:16;;;;;;;0.28;0.28;;;;;;;11.05;60.57;99483.47;4464040;31;33471;-82
2024/02/25 02:56:43;;;;;;;0.13;0.13;;;;;;;10.85;60.87;99485.31;4487345;31;33290;-82
2024/02/25 02:59:11;;;;;;;0.10;0.10;;;;;;;10.97;60.54;99483.88;4476928;31;32587;-82
2024/02/25 03:01:39;;;;;;;0.45;0.45;;;;;;;10.84;60.78;99488.06;4480265;31;33784;-82
2024/02/25 03:04:08;;;;;;;0.95;0.40;;;;;;;10.84;59.99;99483.63;4475035;31;33748;-83
2024/02/25 03:06:35;;;;;;;0.00;0.00;;;;;;;10.83;60.29;99491.63;4478362;31;34128;-82
2024/02/25 03:09:03;;;;;;;5.50;1.12;;;;;;;10.72;60.47;99494.78;4489712;31;33187;-81
2024/02/25 03:11:31;;;;;;;0.22;0.22;;;;;;;10.63;60.84;99509.28;4478031;31;33929;-82
2024/02/25 03:14:00;;;;;;;0.22;0.22;;;;;;;10.67;60.34;99502.06;4472718;31;33458;-81
2024/02/25 03:16:28;;;;;;;0.80;0.80;;;;;;;10.45;60.69;99508.41;4476547;31;33361;-81
2024/02/25 03:18:55;;;;;;;0.00;0.00;;;;;;;10.45;60.64;99510.19;4460922;31;32043;-81
2024/02/25 03:21:23;;;;;;;0.75;0.75;;;;;;;10.44;60.49;99506.69;4478218;31;33351;-81
2024/02/25 03:23:51;;;;;;;1.23;1.12;;;;;;;10.35;60.77;99517.69;4490529;31;33732;-81
2024/02/25 03:26:20;;;;;;;0.47;0.47;;;;;;;10.34;60.78;99500.13;4477342;31;33441;-81
2024/02/25 03:28:48;;;;;;;0.00;0.00;;;;;;;10.30;60.67;99495.06;4479940;31;33699;-81
2024/02/25 03:31:17;;;;;;;0.35;0.35;;;;;;;10.37;60.38;99499.97;4475373;31;32563;-81
2024/02/25 03:33:45;;;;;;;0.00;0.00;;;;;;;10.19;60.77;99500.81;4490332;31;34367;-81
2024/02/25 03:36:13;;;;;;;0.43;0.35;;;;;;;10.14;61.04;99505.47;4478657;31;33836;-81
2024/02/25 03:38:42;;;;;;;0.88;0.88;;;;;;;10.00;60.83;99503.44;4475191;31;32547;-81
2024/02/25 03:41:09;;;;;;;6.12;0.88;;;;;;;10.09;60.70;99507.47;4489765;31;33628;-81
2024/02/25 03:43:37;;;;;;;0.32;0.32;;;;;;;10.14;60.62;99508.09;4488765;31;34358;-81
2024/02/25 03:46:06;;;;;;;0.08;0.08;;;;;;;10.16;60.48;99511.50;4475030;31;33505;-81
2024/02/25 03:48:34;;;;;;;0.22;0.22;;;;;;;10.07;60.92;99506.69;4476310;31;32902;-81
2024/02/25 03:51:02;;;;;;;1.25;0.80;;;;;;;9.97;61.16;99512.38;4477960;31;33283;-81
2024/02/25 03:53:31;;;;;;;0.35;0.35;;;;;;;10.04;60.28;99517.38;4466743;31;33367;-81
2024/02/25 03:55:58;;;;;;;0.10;0.10;;;;;;;9.86;61.07;99512.00;4489946;31;34151;-81
2024/02/25 03:58:26;;;;;;;2.50;2.30;;;;;;;9.73;61.09;99514.34;4475168;31;33271;-81
2024/02/25 04:00:55;;;;;;;0.65;0.65;;;;;;;9.73;61.25;99518.72;4478132;31;33121;-81
2024/02/25 04:03:23;;;;;;;0.00;0.00;;;;;;;9.61;61.41;99514.03;4489081;31;34046;-81
2024/02/25 04:05:51;;;;;;;0.98;0.90;;;;;;;9.65;60.81;99516.47;4465453;31;32036;-81
2024/02/25 04:08:19;;;;;;;0.00;0.00;;;;;;;9.63;61.24;99517.44;4489883;31;32754;-81
2024/02/25 04:10:47;;;;;;;0.57;0.57;;;;;;;9.62;61.11;99521.00;4489431;31;34508;-81
2024/02/25 04:13:14;;;;;;;1.02;0.40;;;;;;;9.56;60.77;99516.88;4477753;31;33679;-81
2024/02/25 04:15:44;;;;;;;0.20;0.20;;;;;;;9.67;60.85;99508.47;4476563;31;33628;-81
2024/02/25 04:18:12;;;;;;;0.98;0.62;;;;;;;9.70;60.51;99503.94;4477636;31;33749;-81
2024/02/25 04:20:40;;;;;;;6.65;0.47;;;;;;;9.45;60.83;99501.53;4477624;31;34230;-81
2024/02/25 04:23:07;;;;;;;0.90;0.75;;;;;;;9.51;59.89;99502.19;4479999;31;34148;-81
2024/02/25 04:25:35;;;;;;;0.20;0.20;;;;;;;9.37;60.64;99505.41;4451353;31;34470;-81
2024/02/25 04:28:03;;;;;;;0.15;0.15;;;;;;;9.48;60.28;99505.78;4475427;31;34063;-81
2024/02/25 04:30:31;;;;;;;1.52;1.42;;;;;;;9.31;60.53;99501.28;4489084;31;33824;-81
2024/02/25 04:32:59;;;;;;;0.32;0.20;;;;;;;9.58;59.31;99508.88;4479360;31;33574;-81
2024/02/25 04:35:27;;;;;;;0.70;0.70;;;;;;;9.17;60.36;99519.44;4488345;31;33574;-81
2024/02/25 04:37:55;;;;;;;0.35;0.35;;;;;;;9.13;60.99;99517.88;4479488;31;31719;-82
2024/02/25 04:40:24;;;;;;;0.52;0.52;;;;;;;9.03;61.02;99521.81;4477993;31;33247;-82
2024/02/25 04:42:51;;;;;;;0.30;0.30;;;;;;;9.06;60.75;99514.63;4475041;31;34906;-82
2024/02/25 04:45:19;;;;;;;1.52;1.42;;;;;;;9.06;60.67;99521.66;4463029;31;33529;-82
2024/02/25 04:47:47;;;;;;;0.00;0.00;;;;;;;8.77;61.08;99526.34;4473249;31;33094;-82
2024/02/25 04:50:15;;;;;;;0.00;0.00;;;;;;;8.84;60.97;99534.88;4473950;31;34500;-82
2024/02/25 04:52:43;;;;;;;0.43;0.43;;;;;;;8.85;60.90;99540.06;4490752;31;34652;-81
2024/02/25 04:55:11;;;;;;;1.48;1.37;;;;;;;8.89;60.54;99540.81;4462775;31;33940;-82
2024/02/25 04:57:39;;;;;;;0.65;0.62;;;;;;;8.86;60.77;99539.16;4489354;31;33068;-82
2024/02/25 05:00:07;;;;;;;0.15;0.15;;;;;;;8.70;61.32;99536.28;4465145;31;34042;-82
2024/02/25 05:02:35;;;;;;;1.27;0.52;;;;;;;8.63;61.70;99529.53;4487855;31;33389;-81
2024/02/25 05:05:04;;;;;;;0.50;0.37;;;;;;;8.73;61.31;99524.75;4491019;31;33494;-81
2024/02/25 05:07:32;;;;;;;1.12;0.80;;;;;;;8.61;60.92;99526.13;4488914;31;33370;-81
2024/02/25 05:10:00;;;;;;;0.00;0.00;;;;;;;8.44;61.66;99528.56;4474131;31;32760;-81
2024/02/25 05:12:28;;;;;;;3.20;1.12;;;;;;;8.38;61.66;99532.28;4474657;31;33116;-81
2024/02/25 05:14:55;;;;;;;0.30;0.30;;;;;;;8.49;60.93;99528.37;4487982;31;34588;-81
2024/02/25 05:17:25;;;;;;;0.03;0.03;;;;;;;8.31;61.50;99527.28;4489235;31;33024;-81
2024/02/25 05:19:53;;;;;;;0.45;0.45;;;;;;;8.22;61.89;99523.25;4480082;31;33768;-81
2024/02/25 05:22:21;;;;;;;0.10;0.10;;;;;;;8.24;61.61;99529.31;4477451;31;34136;-81
2024/02/25 05:24:49;;;;;;;1.77;1.37;;;;;;;8.34;61.32;99533.28;4491810;31;34241;-81
2024/02/25 05:27:17;;;;;;;0.00;0.00;;;;;;;8.43;61.22;99529.47;4491415;31;32851;-81
2024/02/25 05:29:45;;;;;;;4.37;1.67;;;;;;;8.37;60.90;99529.72;4481136;31;32444;-81
2024/02/25 05:32:15;;;;;;;0.25;0.25;;;;;;;8.28;60.87;99533.53;4491677;31;33878;-81
2024/02/25 05:34:43;;;;;;;0.55;0.55;;;;;;;8.31;60.37;99533.44;4495282;31;34235;-81
2024/02/25 05:37:14;;;;;;;0.08;0.08;;;;;;;8.14;60.85;99541.09;4477132;31;33899;-81
2024/02/25 05:39:42;;;;;;;0.68;0.65;;;;;;;8.16;61.07;99536.63;4481439;31;33952;-81
2024/02/25 05:42:09;;;;;;;0.43;0.43;;;;;;;8.04;61.72;99540.59;4490530;31;33674;-81
2024/02/25 05:44:37;;;;;;;0.20;0.20;;;;;;;8.01;61.85;99542.47;4480368;31;34210;-81
2024/02/25 05:47:05;;;;;;;0.28;0.28;;;;;;;7.99;61.62;99539.91;4478945;31;33776;-82
2024/02/25 05:49:32;;;;;;;0.10;0.10;;;;;;;7.99;61.36;99546.94;4491180;31;33072;-82
2024/02/25 05:52:00;;;;;;;0.40;0.40;;;;;;;7.99;61.42;99541.69;4488777;31;32299;-82
2024/02/25 05:54:28;;;;;;;0.20;0.20;;;;;;;8.02;61.42;99536.28;4492066;31;34540;-82
2024/02/25 05:56:56;;;;;;;2.53;0.93;;;;;;;7.99;61.73;99541.69;4493627;31;33310;-82
2024/02/25 05:59:23;;;;;;;1.00;1.00;;;;;;;7.96;61.55;99538.22;4490643;31;33158;-82
2024/02/25 06:01:51;;;;;;;2.47;1.55;;;;;;;7.95;61.56;99547.03;4478385;31;32938;-82
2024/02/25 06:04:19;;;;;;;1.02;1.02;;;;;;;8.00;60.93;99544.25;4478577;31;32869;-82
2024/02/25 06:06:53;;;;;;;1.77;1.35;;;;;;;7.92;61.46;99548.91;4494297;31;32645;-82
2024/02/25 06:09:21;;;;;;;0.20;0.20;;;;;;;7.82;61.97;99558.91;4464722;31;32995;-82
2024/02/25 06:11:49;;;;;;;1.20;1.20;;;;;;;7.81;61.45;99546.69;4487150;31;34731;-82
2024/02/25 06:14:17;;;;;;;0.20;0.20;;;;;;;7.71;62.26;99545.31;4475302;31;33379;-82
2024/02/25 06:16:45;;;;;;;0.30;0.30;;;;;;;7.80;61.50;99550.25;4479254;31;32557;-81
2024/02/25 06:19:13;;;;;;;0.43;0.43;;;;;;;7.82;61.28;99552.78;4494784;31;32577;-82
2024/02/25 06:21:44;;;;;;;0.20;0.20;;;;;;;7.70;61.78;99557.59;4474813;31;34679;-82
2024/02/25 06:24:12;;;;;;;1.07;1.00;;;;;;;7.61;62.83;99557.06;4491055;31;33987;-81
2024/02/25 06:26:45;;;;;;;0.00;0.00;;;;;;;7.71;61.88;99563.72;4486160;31;34253;-82
2024/02/25 06:29:14;;;;;;;0.75;0.75;;;;;;;7.64;62.31;99563.06;4480194;31;33325;-82
2024/02/25 06:31:44;;;;;;;0.75;0.75;;;;;;;7.68;62.77;99554.16;4493215;31;32065;-82
2024/02/25 06:34:12;;;;;;;0.17;0.17;;;;;;;7.62;62.60;99549.13;4477003;31;33664;-82
2024/02/25 06:36:40;;;;;;;0.62;0.62;;;;;;;7.81;62.73;99540.56;4477252;31;32812;-82
2024/02/25 06:39:08;;;;;;;0.68;0.68;;;;;;;7.72;62.92;99536.50;4463591;31;33716;-82
2024/02/25 06:41:36;;;;;;;0.45;0.45;;;;;;;7.78;62.64;99536.28;4479925;31;33270;-83
2024/02/25 06:44:04;;;;;;;0.47;0.47;;;;;;;7.75;63.04;99539.03;4481700;31;33224;-82
2024/02/25 06:46:31;;;;;;;0.40;0.40;;;;;;;7.85;62.67;99540.41;4490922;31;32823;-83
2024/02/25 06:48:59;;;;;;;1.05;1.05;;;;;;;7.80;63.03;99530.97;4476374;31;32462;-83
2024/02/25 06:51:27;;;;;;;0.90;0.88;;;;;;;7.96;62.40;99530.34;4488929;31;33635;-83
2024/02/25 06:53:55;;;;;;;5.40;1.92;;;;;;;7.83;63.28;99531.75;4476663;31;33052;-83
2024/02/25 06:56:23;;;;;;;0.70;0.70;;;;;;;8.00;63.04;99527.59;4491993;31;33128;-83
2024/02/25 06:58:51;;;;;;;0.90;0.65;;;;;;;8.14;62.52;99533.22;4477037;31;33318;-82
2024/02/25 07:01:19;;;;;;;1.23;1.23;;;;;;;8.19;61.99;99533.88;4490782;31;32412;-82
2024/02/25 07:03:49;;;;;;;6.03;3.90;;;;;;;8.05;63.10;99533.56;4469707;31;34153;-82
2024/02/25 07:06:17;;;;;;;2.25;1.87;;;;;;;8.15;63.50;99538.41;4476983;31;33870;-82
2024/02/25 07:08:45;;;;;;;0.28;0.28;;;;;;;8.38;62.50;99534.91;4490831;31;32830;-82
2024/02/25 07:11:19;;;;;;;1.45;1.35;;;;;;;8.19;63.49;99540.00;4480815;31;34685;-81
2024/02/25 07:13:51;;;;;;;0.50;0.50;;;;;;;8.25;63.79;99532.78;4492717;31;33761;-82
2024/02/25 07:16:19;;;;;;;2.12;1.95;;;;;;;8.30;64.63;99534.31;4482027;31;33414;-82
2024/02/25 07:18:47;;;;;;;4.05;2.00;;;;;;;8.33;65.28;99546.50;4465242;31;34192;-82
2024/02/25 07:21:16;;;;;;;1.30;1.20;;;;;;;8.49;65.11;99541.53;4476103;31;32285;-81
2024/02/25 07:23:43;;;;;;;6.90;2.42;;;;;;;8.84;63.73;99546.25;4478649;31;33506;-81
2024/02/25 07:26:13;;;;;;;1.37;1.27;;;;;;;9.17;64.39;99541.38;4478276;31;33451;-82
2024/02/25 07:28:42;;;;;;;0.17;0.17;;;;;;;9.32;65.75;99539.00;4476759;31;34511;-83
2024/02/25 07:31:17;;;;;;;1.20;1.10;;;;;;;9.41;66.58;99539.47;4476000;31;33333;-81
2024/02/25 07:33:47;;;;;;;1.85;1.65;;;;;;;9.62;67.00;99539.47;4475655;31;32982;-82
2024/02/25 07:36:17;;;;;;;0.25;0.25;;;;;;;10.07;66.88;99533.91;4467495;31;32321;-82
2024/02/25 07:38:45;;;;;;;0.40;0.40;;;;;;;10.18;67.56;99530.78;4465729;31;32670;-82
2024/02/25 07:41:13;;;;;;;1.75;0.52;;;;;;;10.25;67.30;99526.94;4492041;31;34080;-82
2024/02/25 07:43:40;;;;;;;0.32;0.32;;;;;;;10.23;66.80;99531.41;4475017;31;35016;-82
2024/02/25 07:46:08;;;;;;;2.55;1.45;;;;;;;10.47;65.47;99535.56;4475058;31;33268;-82
2024/02/25 07:48:39;;;;;;;5.35;3.20;;;;;;;9.99;66.37;99539.53;4492429;31;33548;-82
2024/02/25 07:51:08;;;;;;;0.88;0.77;;;;;;;9.86;67.12;99533.09;4479450;31;34117;-82
2024/02/25 07:53:38;;;;;;;0.35;0.35;;;;;;;9.83;66.78;99541.16;4478845;31;33830;-82
2024/02/25 07:56:06;;;;;;;0.43;0.43;;;;;;;10.11;65.93;99546.03;4479587;31;33754;-81
2024/02/25 07:58:33;;;;;;;2.12;1.50;;;;;;;10.29;65.69;99540.84;4490434;31;34557;-82
2024/02/25 08:01:01;;;;;;;1.65;1.55;;;;;;;10.01;66.43;99544.72;4461802;31;32439;-81
2024/02/25 08:03:30;;;;;;;1.20;1.10;;;;;;;10.09;66.54;99541.75;4462592;31;33873;-81
2024/02/25 08:05:58;;;;;;;3.03;1.98;;;;;;;10.04;67.44;99541.09;4464444;31;33214;-80
2024/02/25 08:08:25;;;;;;;1.35;1.25;;;;;;;10.40;66.68;99539.44;4477084;31;33912;-81
2024/02/25 08:10:53;;;;;;;2.03;1.48;;;;;;;10.42;67.28;99540.22;4463648;31;33300;-80
2024/02/25 08:13:21;;;;;;;0.43;0.43;;;;;;;10.86;66.36;99539.00;4478648;31;34231;-81
2024/02/25 08:15:49;;;;;;;0.80;0.80;;;;;;;10.92;66.22;99534.28;4474764;31;33474;-81
2024/02/25 08:18:18;;;;;;;1.02;0.98;;;;;;;10.97;66.16;99534.91;4476999;31;33370;-81
2024/02/25 08:20:45;;;;;;;0.62;0.62;;;;;;;11.12;66.20;99532.44;4488083;31;34389;-81
2024/02/25 08:23:15;;;;;;;1.75;1.65;;;;;;;11.37;65.53;99527.59;4476512;31;33941;-81
2024/02/25 08:25:43;;;;;;;1.30;1.30;;;;;;;11.61;65.09;99522.84;4487317;31;32908;-82
2024/02/25 08:28:10;;;;;;;8.95;1.62;;;;;;;11.59;65.58;99523.88;4477010;31;34514;-80
2024/02/25 08:30:38;;;;;;;3.50;3.17;;;;;;;11.87;64.81;99529.44;4474509;31;33902;-80
2024/02/25 08:33:06;;;;;;;1.85;1.75;;;;;;;11.86;64.90;99527.72;4464349;31;33269;-80
2024/02/25 08:35:33;;;;;;;0.50;0.50;;;;;;;11.44;66.37;99531.66;4491617;31;34032;-80
2024/02/25 08:38:01;;;;;;;9.15;1.85;;;;;;;11.94;64.91;99525.53;4477407;31;33509;-80
2024/02/25 08:40:31;;;;;;;2.30;2.10;;;;;;;12.07;64.83;99530.16;4476233;31;33962;-80
2024/02/25 08:42:59;;;;;;;2.67;2.47;;;;;;;11.99;64.76;99528.78;4491286;31;34250;-80
2024/02/25 08:45:26;;;;;;;2.40;2.30;;;;;;;11.88;65.76;99533.78;4465316;31;31716;-81
2024/02/25 08:47:54;;;;;;;3.25;1.33;;;;;;;12.11;65.46;99532.56;4463242;31;32306;-80
2024/02/25 08:50:27;;;;;;;3.00;2.83;;;;;;;12.05;65.53;99533.72;4490700;31;34794;-80
2024/02/25 08:52:55;;;;;;;9.88;2.80;;;;;;;12.35;64.82;99527.72;4490555;31;34558;-80
2024/02/25 08:55:23;;;;;;;3.75;2.30;;;;;;;12.34;64.44;99533.06;4488452;31;32756;-81
2024/02/25 08:57:50;;;;;;;3.97;3.40;;;;;;;12.24;64.88;99536.22;4487486;31;33904;-80
2024/02/25 09:00:18;;;;;;;1.73;1.62;;;;;;;12.09;65.49;99539.72;4475022;31;34939;-81
2024/02/25 09:02:46;;;;;;;1.70;1.52;;;;;;;12.61;63.69;99530.69;4489020;31;32499;-80
2024/02/25 09:05:14;;;;;;;1.70;1.58;;;;;;;12.60;63.22;99535.16;4474419;31;33514;-80
2024/02/25 09:07:43;;;;;;;2.28;2.08;;;;;;;12.77;62.83;99532.41;4487945;31;33977;-80
2024/02/25 09:10:13;;;;;;;3.15;2.95;;;;;;;12.94;62.63;99534.06;4489629;31;34023;-80
2024/02/25 09:12:44;;;;;;;2.50;2.28;;;;;;;12.77;63.69;99528.87;4473017;31;33357;-80
2024/02/25 09:15:13;;;;;;;9.75;4.10;;;;;;;12.38;64.58;99524.88;4483915;31;34166;-80
2024/02/25 09:17:41;;;;;;;3.80;1.17;;;;;;;12.41;64.22;99519.44;4477882;31;33066;-80
2024/02/25 09:20:10;;;;;;;2.87;2.05;;;;;;;12.37;64.22;99519.69;4490263;31;33841;-80
2024/02/25 09:22:38;;;;;;;2.50;1.70;;;;;;;12.58;63.95;99502.59;4491632;31;33597;-80
2024/02/25 09:25:05;;;;;;;12.98;3.55;;;;;;;12.68;64.04;99505.59;4465312;31;32063;-81
2024/02/25 09:27:33;;;;;;;3.72;2.33;;;;;;;12.95;63.31;99503.97;4475533;31;32037;-81
2024/02/25 09:30:05;;;;;;;3.08;2.42;;;;;;;13.14;62.86;99493.16;4475196;31;32666;-80
2024/02/25 09:32:35;;;;;;;1.37;1.27;;;;;;;13.23;62.21;99486.47;4473948;31;32627;-80
2024/02/25 09:35:03;;;;;;;0.73;0.73;;;;;;;13.36;61.71;99492.75;4476317;31;33895;-80
2024/02/25 09:37:31;;;;;;;5.25;1.10;;;;;;;13.15;62.30;99478.09;4490883;31;33794;-80
2024/02/25 09:39:59;;;;;;;11.07;4.25;;;;;;;12.75;64.44;99483.09;4488067;31;34619;-81
2024/02/25 09:42:29;;;;;;;1.73;1.62;;;;;;;13.26;62.81;99475.72;4463145;31;32912;-80
2024/02/25 09:44:56;;;;;;;1.27;1.17;;;;;;;13.27;62.57;99482.72;4473361;31;32554;-81
2024/02/25 09:47:24;;;;;;;1.15;1.05;;;;;;;13.29;62.59;99483.47;4476084;31;34059;-83
2024/02/25 09:49:53;;;;;;;1.55;1.45;;;;;;;13.37;61.88;99483.84;4463175;31;32925;-83
2024/02/25 09:52:25;;;;;;;1.83;1.52;;;;;;;13.42;62.19;99479.12;4479042;31;32469;-82
2024/02/25 09:54:53;;;;;;;0.37;0.37;;;;;;;13.85;60.71;99484.47;4491749;31;33085;-82
2024/02/25 09:57:21;;;;;;;1.08;0.98;;;;;;;14.06;60.67;99476.97;4477511;31;34243;-82
2024/02/25 09:59:49;;;;;;;1.45;1.35;;;;;;;14.24;60.23;99474.91;4476974;31;32912;-82
2024/02/25 10:02:17;;;;;;;0.80;0.80;;;;;;;14.48;59.50;99468.09;4463377;31;33172;-82
2024/02/25 10:04:45;;;;;;;0.47;0.47;;;;;;;14.45;58.85;99467.41;4463754;31;31554;-82
2024/02/25 10:07:16;;;;;;;0.77;0.77;;;;;;;14.89;57.26;99459.16;4487731;31;34493;-82
2024/02/25 10:09:44;;;;;;;1.95;1.73;;;;;;;14.62;57.67;99463.66;4477582;31;33567;-82
2024/02/25 10:12:11;;;;;;;0.15;0.15;;;;;;;15.16;55.84;99458.28;4493090;31;33904;-82
2024/02/25 10:14:40;;;;;;;0.25;0.25;;;;;;;14.62;57.89;99464.50;4476889;31;34119;-83
2024/02/25 10:17:09;;;;;;;2.37;0.73;;;;;;;14.70;57.33;99453.38;4490748;31;33619;-82
2024/02/25 10:19:37;;;;;;;2.92;1.42;;;;;;;15.26;56.28;99452.22;4481367;31;34222;-83
2024/02/25 10:22:14;;;;;;;0.40;0.40;;;;;;;15.51;54.90;99456.69;4472743;31;33635;-83
2024/02/25 10:24:44;;;;;;;0.65;0.65;;;;;;;15.26;55.34;99441.59;4481207;31;32418;-83
2024/02/25 10:27:13;;;;;;;0.60;0.60;;;;;;;15.45;56.21;99445.63;4475410;31;34651;-82
2024/02/25 10:29:53;;;;;;;0.17;0.17;;;;;;;15.39;55.32;99436.28;4490774;31;33223;-82
2024/02/25 10:32:27;;;;;;;2.67;1.27;;;;;;;15.72;54.16;99435.75;4477169;31;32610;-82
2024/02/25 10:34:57;;;;;;;3.10;1.35;;;;;;;15.94;53.60;99429.75;4477653;31;33914;-82
2024/02/25 10:37:26;;;;;;;0.43;0.40;;;;;;;15.80;53.92;99429.87;4463863;31;33235;-83
2024/02/25 10:39:58;;;;;;;1.58;1.45;;;;;;;15.92;53.72;99434.34;4466447;31;34289;-85
2024/02/25 10:42:28;;;;;;;10.15;0.60;;;;;;;15.71;52.98;99427.84;4478902;31;34256;-83
2024/02/25 10:44:57;;;;;;;0.85;0.60;;;;;;;16.22;52.04;99425.09;4468818;31;32613;-83
2024/02/25 10:47:30;;;;;;;0.25;0.25;;;;;;;15.99;52.97;99424.94;4464774;31;32569;-84
2024/02/25 10:49:58;;;;;;;1.08;0.77;;;;;;;16.35;51.50;99420.56;4462943;31;33332;-82
2024/02/25 10:52:26;;;;;;;0.17;0.10;;;;;;;16.15;52.51;99413.19;4490708;31;33217;-86
2024/02/25 10:54:57;;;;;;;1.65;1.15;;;;;;;16.07;52.29;99419.06;4467513;31;32315;-84
2024/02/25 10:57:25;;;;;;;18.53;1.23;;;;;;;16.51;50.33;99407.81;4478013;31;33843;-85
2024/02/25 10:59:53;;;;;;;0.68;0.68;;;;;;;16.71;49.89;99402.78;4477508;31;33578;-82
2024/02/25 11:02:26;;;;;;;0.55;0.55;;;;;;;16.92;49.56;99403.03;4476740;31;32803;-83
2024/02/25 11:04:54;;;;;;;1.08;1.08;;;;;;;16.70;51.41;99401.09;4475746;31;32962;-83
2024/02/25 11:07:22;;;;;;;1.95;0.45;;;;;;;16.81;50.01;99395.84;4477042;31;32999;-83
2024/02/25 11:09:50;;;;;;;0.70;0.70;;;;;;;17.04;49.76;99394.94;4463114;31;33493;-83
2024/02/25 11:12:25;;;;;;;0.60;0.60;;;;;;;17.08;49.04;99388.38;4479766;31;33838;-83
2024/02/25 11:15:01;;;;;;;0.47;0.35;;;;;;;16.92;48.69;99385.22;4479021;31;33114;-82
2024/02/25 11:17:32;;;;;;;1.05;0.60;;;;;;;16.74;48.76;99392.78;4463827;31;32988;-83
2024/02/25 11:20:08;;;;;;;0.52;0.52;;;;;;;17.19;48.05;99387.56;4477750;31;33381;-83
2024/02/25 11:22:44;;;;;;;0.82;0.70;;;;;;;16.85;48.86;99383.97;4467677;31;32925;-83
2024/02/25 11:25:30;;;;;;;0.77;0.77;;;;;;;17.23;47.99;99372.16;4491071;31;33443;-84
2024/02/25 11:28:12;;;;;;;0.98;0.90;;;;;;;16.67;48.42;99378.19;4479317;31;32819;-83
2024/02/25 11:30:52;;;;;;;;;;;;;;;15.95;50.70;99378.22;4478980;31;35121;-83
2024/02/25 11:33:36;;;;;;;0.85;0.57;;;;;;;16.11;50.65;99372.59;4492488;31;34251;-83
2024/02/25 11:36:09;;;;;;;1.25;1.15;;;;;;;16.01;50.89;99367.09;4478460;31;32395;-82
2024/02/25 11:38:40;;;;;;;0.50;0.50;;;;;;;15.59;52.30;99374.53;4491716;31;34249;-83
2024/02/25 11:41:10;;;;;;;2.40;1.75;;;;;;;15.82;51.51;99372.06;4478976;31;33720;-83
2024/02/25 11:43:39;;;;;;;0.45;0.43;;;;;;;16.03;51.37;99370.50;4492452;31;33934;-83